sensor_id;sensor_type;location;lat;lon;timestamp;pressure;altitude;pressure_sealevel;temperature;humidity
11487;BME280;10510;47.942;9.442;2023-03-14T00:00:10;93317.38;;;7.65;100.00
11487;BME280;10510;47.942;9.442;2023-03-14T00:02:11;93309.13;;;7.61;100.00
11487;BME280;10510;47.942;9.442;2023-03-14T00:04:12;93304.94;;;7.60;100.00
11487;BME280;10510;47.942;9.442;2023-03-14T00:06:13;93308.72;;;7.58;100.00
11487;BME280;10510;47.942;9.442;2023-03-14T00:08:13;93298.94;;;7.53;100.00
11487;BME280;10510;47.942;9.442;2023-03-14T00:10:14;93306.13;;;7.51;100.00
11487;BME280;10510;47.942;9.442;2023-03-14T00:12:15;93301.72;;;7.45;100.00
11487;BME280;10510;47.942;9.442;2023-03-14T00:14:15;93304.31;;;7.38;100.00
11487;BME280;10510;47.942;9.442;2023-03-14T00:16:17;93302.66;;;7.31;100.00
11487;BME280;10510;47.942;9.442;2023-03-14T00:18:17;93310.84;;;7.21;100.00
11487;BME280;10510;47.942;9.442;2023-03-14T00:20:19;93291.19;;;7.12;100.00
11487;BME280;10510;47.942;9.442;2023-03-14T00:22:21;93293.19;;;7.03;100.00
11487;BME280;10510;47.942;9.442;2023-03-14T00:24:21;93293.34;;;6.95;100.00
11487;BME280;10510;47.942;9.442;2023-03-14T00:26:21;93275.09;;;6.88;100.00
11487;BME280;10510;47.942;9.442;2023-03-14T00:28:22;93270.69;;;6.82;100.00
11487;BME280;10510;47.942;9.442;2023-03-14T00:30:22;93280.66;;;6.78;100.00
11487;BME280;10510;47.942;9.442;2023-03-14T00:32:22;93276.88;;;6.74;100.00
11487;BME280;10510;47.942;9.442;2023-03-14T00:34:22;93287.44;;;6.73;100.00
11487;BME280;10510;47.942;9.442;2023-03-14T00:36:23;93284.25;;;6.71;100.00
11487;BME280;10510;47.942;9.442;2023-03-14T00:38:23;93286.22;;;6.69;100.00
11487;BME280;10510;47.942;9.442;2023-03-14T00:40:24;93284.41;;;6.69;100.00
11487;BME280;10510;47.942;9.442;2023-03-14T00:42:24;93267.44;;;6.67;100.00
11487;BME280;10510;47.942;9.442;2023-03-14T00:44:24;93257.25;;;6.65;100.00
11487;BME280;10510;47.942;9.442;2023-03-14T00:46:25;93244.28;;;6.65;100.00
11487;BME280;10510;47.942;9.442;2023-03-14T00:48:25;93233.88;;;6.65;100.00
11487;BME280;10510;47.942;9.442;2023-03-14T00:50:26;93224.47;;;6.64;100.00
11487;BME280;10510;47.942;9.442;2023-03-14T00:52:26;93216.50;;;6.66;100.00
11487;BME280;10510;47.942;9.442;2023-03-14T00:54:26;93222.50;;;6.66;100.00
11487;BME280;10510;47.942;9.442;2023-03-14T00:56:27;93219.91;;;6.66;100.00
11487;BME280;10510;47.942;9.442;2023-03-14T00:58:27;93212.91;;;6.67;100.00
11487;BME280;10510;47.942;9.442;2023-03-14T01:00:27;93187.16;;;6.65;100.00
11487;BME280;10510;47.942;9.442;2023-03-14T01:02:28;93176.78;;;6.65;100.00
11487;BME280;10510;47.942;9.442;2023-03-14T01:04:28;93178.38;;;6.66;100.00
11487;BME280;10510;47.942;9.442;2023-03-14T01:06:30;93166.19;;;6.67;100.00
11487;BME280;10510;47.942;9.442;2023-03-14T01:08:30;93166.19;;;6.67;100.00
11487;BME280;10510;47.942;9.442;2023-03-14T01:10:31;93141.00;;;6.67;100.00
11487;BME280;10510;47.942;9.442;2023-03-14T01:12:31;93148.78;;;6.67;100.00
11487;BME280;10510;47.942;9.442;2023-03-14T01:14:31;93135.22;;;6.65;100.00
11487;BME280;10510;47.942;9.442;2023-03-14T01:16:34;93128.41;;;6.64;100.00
11487;BME280;10510;47.942;9.442;2023-03-14T01:18:35;93141.41;;;6.64;100.00
11487;BME280;10510;47.942;9.442;2023-03-14T01:20:36;93133.59;;;6.64;100.00
11487;BME280;10510;47.942;9.442;2023-03-14T01:22:38;93138.81;;;6.64;100.00
11487;BME280;10510;47.942;9.442;2023-03-14T01:24:39;93144.22;;;6.63;100.00
11487;BME280;10510;47.942;9.442;2023-03-14T01:26:40;93152.00;;;6.63;100.00
11487;BME280;10510;47.942;9.442;2023-03-14T01:28:40;93158.38;;;6.60;100.00
11487;BME280;10510;47.942;9.442;2023-03-14T01:30:41;93150.97;;;6.57;100.00
11487;BME280;10510;47.942;9.442;2023-03-14T01:32:41;93139.00;;;6.56;100.00
11487;BME280;10510;47.942;9.442;2023-03-14T01:34:41;93137.38;;;6.55;100.00
11487;BME280;10510;47.942;9.442;2023-03-14T01:36:42;93135.78;;;6.54;100.00
11487;BME280;10510;47.942;9.442;2023-03-14T01:38:42;93136.75;;;6.53;100.00
11487;BME280;10510;47.942;9.442;2023-03-14T01:40:44;93135.97;;;6.52;100.00
11487;BME280;10510;47.942;9.442;2023-03-14T01:42:46;93148.16;;;6.52;100.00
11487;BME280;10510;47.942;9.442;2023-03-14T01:44:58;93149.53;;;6.48;100.00
11487;BME280;10510;47.942;9.442;2023-03-14T01:46:59;93144.75;;;6.45;100.00
11487;BME280;10510;47.942;9.442;2023-03-14T01:49:07;93144.94;;;6.43;100.00
11487;BME280;10510;47.942;9.442;2023-03-14T01:51:12;93148.72;;;6.41;100.00
11487;BME280;10510;47.942;9.442;2023-03-14T01:53:14;93149.09;;;6.37;100.00
11487;BME280;10510;47.942;9.442;2023-03-14T01:55:17;93150.09;;;6.36;100.00
11487;BME280;10510;47.942;9.442;2023-03-14T01:57:23;93152.69;;;6.36;100.00
11487;BME280;10510;47.942;9.442;2023-03-14T01:59:24;93158.69;;;6.37;100.00
11487;BME280;10510;47.942;9.442;2023-03-14T02:01:26;93138.13;;;6.35;100.00
11487;BME280;10510;47.942;9.442;2023-03-14T02:03:27;93141.50;;;6.36;100.00
11487;BME280;10510;47.942;9.442;2023-03-14T02:05:32;93134.72;;;6.35;100.00
11487;BME280;10510;47.942;9.442;2023-03-14T02:07:39;93132.31;;;6.33;100.00
11487;BME280;10510;47.942;9.442;2023-03-14T02:09:42;93132.31;;;6.33;100.00
11487;BME280;10510;47.942;9.442;2023-03-14T02:11:43;93130.72;;;6.32;100.00
11487;BME280;10510;47.942;9.442;2023-03-14T02:13:44;93119.53;;;6.32;100.00
11487;BME280;10510;47.942;9.442;2023-03-14T02:15:45;93103.16;;;6.31;100.00
11487;BME280;10510;47.942;9.442;2023-03-14T02:17:46;93097.97;;;6.31;100.00
11487;BME280;10510;47.942;9.442;2023-03-14T02:20:22;93084.81;;;6.33;100.00
11487;BME280;10510;47.942;9.442;2023-03-14T02:22:24;93085.63;;;6.33;100.00
11487;BME280;10510;47.942;9.442;2023-03-14T02:24:38;93092.59;;;6.33;100.00
11487;BME280;10510;47.942;9.442;2023-03-14T02:26:43;93097.97;;;6.31;100.00
11487;BME280;10510;47.942;9.442;2023-03-14T02:28:45;93092.78;;;6.31;100.00
11487;BME280;10510;47.942;9.442;2023-03-14T02:30:46;93098.75;;;6.32;100.00
11487;BME280;10510;47.942;9.442;2023-03-14T02:32:51;93091.97;;;6.31;100.00
11487;BME280;10510;47.942;9.442;2023-03-14T02:34:56;93094.75;;;6.29;100.00
11487;BME280;10510;47.942;9.442;2023-03-14T02:36:58;93090.78;;;6.27;100.00
11487;BME280;10510;47.942;9.442;2023-03-14T02:39:14;93093.56;;;6.25;100.00
11487;BME280;10510;47.942;9.442;2023-03-14T02:41:16;93090.16;;;6.25;100.00
11487;BME280;10510;47.942;9.442;2023-03-14T02:43:16;93102.75;;;6.21;100.00
11487;BME280;10510;47.942;9.442;2023-03-14T02:47:19;93103.13;;;6.18;100.00
11487;BME280;10510;47.942;9.442;2023-03-14T02:49:20;93090.16;;;6.18;100.00
11487;BME280;10510;47.942;9.442;2023-03-14T02:51:21;93091.13;;;6.17;100.00
11487;BME280;10510;47.942;9.442;2023-03-14T02:53:25;93080.75;;;6.17;100.00
11487;BME280;10510;47.942;9.442;2023-03-14T02:55:25;93080.75;;;6.17;100.00
11487;BME280;10510;47.942;9.442;2023-03-14T02:57:26;93085.34;;;6.15;100.00
11487;BME280;10510;47.942;9.442;2023-03-14T02:59:27;93080.16;;;6.15;100.00
11487;BME280;10510;47.942;9.442;2023-03-14T03:01:27;93089.53;;;6.16;100.00
11487;BME280;10510;47.942;9.442;2023-03-14T03:03:27;93081.13;;;6.14;100.00
11487;BME280;10510;47.942;9.442;2023-03-14T03:05:27;93071.75;;;6.13;100.00
11487;BME280;10510;47.942;9.442;2023-03-14T03:07:28;93065.16;;;6.10;100.00
11487;BME280;10510;47.942;9.442;2023-03-14T03:09:28;93059.19;;;6.10;100.00
11487;BME280;10510;47.942;9.442;2023-03-14T03:11:28;93050.78;;;6.08;100.00
11487;BME280;10510;47.942;9.442;2023-03-14T03:13:28;93048.41;;;6.06;100.00
11487;BME280;10510;47.942;9.442;2023-03-14T03:15:29;93051.97;;;6.05;100.00
11487;BME280;10510;47.942;9.442;2023-03-14T03:17:29;93056.56;;;6.03;100.00
11487;BME280;10510;47.942;9.442;2023-03-14T03:19:30;93055.75;;;6.03;100.00
11487;BME280;10510;47.942;9.442;2023-03-14T03:21:31;93049.78;;;6.02;100.00
11487;BME280;10510;47.942;9.442;2023-03-14T03:23:31;93048.34;;;6.00;100.00
11487;BME280;10510;47.942;9.442;2023-03-14T03:25:32;93048.34;;;6.00;100.00
11487;BME280;10510;47.942;9.442;2023-03-14T03:27:33;93041.59;;;5.99;100.00
11487;BME280;10510;47.942;9.442;2023-03-14T03:29:34;93047.78;;;5.98;100.00
11487;BME280;10510;47.942;9.442;2023-03-14T03:31:36;93066.91;;;5.97;100.00
11487;BME280;10510;47.942;9.442;2023-03-14T03:33:37;93066.09;;;5.96;100.00
11487;BME280;10510;47.942;9.442;2023-03-14T03:35:47;93076.47;;;5.96;100.00
11487;BME280;10510;47.942;9.442;2023-03-14T03:37:47;93068.69;;;5.96;100.00
11487;BME280;10510;47.942;9.442;2023-03-14T03:39:50;93064.50;;;5.95;100.00
11487;BME280;10510;47.942;9.442;2023-03-14T03:41:50;93059.50;;;5.94;100.00
11487;BME280;10510;47.942;9.442;2023-03-14T03:43:51;93058.72;;;5.93;100.00
11487;BME280;10510;47.942;9.442;2023-03-14T03:45:51;93063.72;;;5.95;100.00
11487;BME280;10510;47.942;9.442;2023-03-14T03:47:51;93058.53;;;5.95;100.00
11487;BME280;10510;47.942;9.442;2023-03-14T03:49:51;93050.75;;;5.95;100.00
11487;BME280;10510;47.942;9.442;2023-03-14T03:51:52;93056.91;;;5.94;100.00
11487;BME280;10510;47.942;9.442;2023-03-14T03:53:52;93058.72;;;5.93;100.00
11487;BME280;10510;47.942;9.442;2023-03-14T03:55:52;93048.50;;;5.91;100.00
11487;BME280;10510;47.942;9.442;2023-03-14T03:57:53;93042.72;;;5.89;100.00
11487;BME280;10510;47.942;9.442;2023-03-14T03:59:53;93046.31;;;5.88;100.00
11487;BME280;10510;47.942;9.442;2023-03-14T04:01:53;93046.31;;;5.88;100.00
11487;BME280;10510;47.942;9.442;2023-03-14T04:03:54;93046.31;;;5.88;100.00
11487;BME280;10510;47.942;9.442;2023-03-14T04:06:04;93043.09;;;5.86;100.00
11487;BME280;10510;47.942;9.442;2023-03-14T04:08:05;93031.13;;;5.85;100.00
11487;BME280;10510;47.942;9.442;2023-03-14T04:10:05;93029.53;;;5.84;100.00
11487;BME280;10510;47.942;9.442;2023-03-14T04:12:06;93035.09;;;5.81;100.00
11487;BME280;10510;47.942;9.442;2023-03-14T04:14:06;93032.50;;;5.81;100.00
11487;BME280;10510;47.942;9.442;2023-03-14T04:16:17;93027.31;;;5.81;100.00
11487;BME280;10510;47.942;9.442;2023-03-14T04:18:18;93017.16;;;5.80;100.00
11487;BME280;10510;47.942;9.442;2023-03-14T04:20:19;93021.50;;;5.79;100.00
11487;BME280;10510;47.942;9.442;2023-03-14T04:22:20;93019.94;;;5.78;100.00
11487;BME280;10510;47.942;9.442;2023-03-14T04:24:20;93020.13;;;5.77;100.00
11487;BME280;10510;47.942;9.442;2023-03-14T04:26:20;93016.13;;;5.74;100.00
11487;BME280;10510;47.942;9.442;2023-03-14T04:28:21;93011.13;;;5.73;100.00
11487;BME280;10510;47.942;9.442;2023-03-14T04:30:21;93009.31;;;5.73;100.00
11487;BME280;10510;47.942;9.442;2023-03-14T04:32:22;92993.97;;;5.72;100.00
11487;BME280;10510;47.942;9.442;2023-03-14T04:34:22;92994.16;;;5.70;100.00
11487;BME280;10510;47.942;9.442;2023-03-14T04:36:22;92998.38;;;5.71;100.00
11487;BME280;10510;47.942;9.442;2023-03-14T04:38:22;92995.78;;;5.71;100.00
11487;BME280;10510;47.942;9.442;2023-03-14T04:40:23;92998.56;;;5.69;100.00
11487;BME280;10510;47.942;9.442;2023-03-14T04:42:23;92993.38;;;5.69;100.00
11487;BME280;10510;47.942;9.442;2023-03-14T04:44:23;92987.56;;;5.67;100.00
11487;BME280;10510;47.942;9.442;2023-03-14T04:46:24;92993.75;;;5.66;100.00
11487;BME280;10510;47.942;9.442;2023-03-14T04:48:25;92994.75;;;5.65;100.00
11487;BME280;10510;47.942;9.442;2023-03-14T04:50:26;92994.94;;;5.64;100.00
11487;BME280;10510;47.942;9.442;2023-03-14T04:52:26;92994.13;;;5.63;100.00
11487;BME280;10510;47.942;9.442;2023-03-14T04:54:26;92994.94;;;5.64;100.00
11487;BME280;10510;47.942;9.442;2023-03-14T04:56:27;92989.16;;;5.62;100.00
11487;BME280;10510;47.942;9.442;2023-03-14T04:58:28;92988.53;;;5.60;100.00
11487;BME280;10510;47.942;9.442;2023-03-14T05:00:28;92991.31;;;5.58;100.00
11487;BME280;10510;47.942;9.442;2023-03-14T05:02:28;92988.13;;;5.56;100.00
11487;BME280;10510;47.942;9.442;2023-03-14T05:04:28;92983.94;;;5.55;100.00
11487;BME280;10510;47.942;9.442;2023-03-14T05:06:29;92978.75;;;5.55;100.00
11487;BME280;10510;47.942;9.442;2023-03-14T05:08:30;92984.94;;;5.54;100.00
11487;BME280;10510;47.942;9.442;2023-03-14T05:10:30;92977.94;;;5.55;100.00
11487;BME280;10510;47.942;9.442;2023-03-14T05:12:30;92968.75;;;5.52;100.00
11487;BME280;10510;47.942;9.442;2023-03-14T05:14:30;92967.97;;;5.52;100.00
11487;BME280;10510;47.942;9.442;2023-03-14T05:16:31;92965.59;;;5.50;100.00
11487;BME280;10510;47.942;9.442;2023-03-14T05:18:31;92965.59;;;5.50;100.00
11487;BME280;10510;47.942;9.442;2023-03-14T05:20:31;92960.41;;;5.50;100.00
11487;BME280;10510;47.942;9.442;2023-03-14T05:22:32;92950.84;;;5.51;100.00
11487;BME280;10510;47.942;9.442;2023-03-14T05:24:32;92946.63;;;5.50;100.00
11487;BME280;10510;47.942;9.442;2023-03-14T05:26:33;92936.25;;;5.50;100.00
11487;BME280;10510;47.942;9.442;2023-03-14T05:28:33;92933.66;;;5.50;100.00
11487;BME280;10510;47.942;9.442;2023-03-14T05:30:33;92933.66;;;5.50;100.00
11487;BME280;10510;47.942;9.442;2023-03-14T05:32:33;92917.94;;;5.51;100.00
11487;BME280;10510;47.942;9.442;2023-03-14T05:34:34;92915.97;;;5.53;100.00
11487;BME280;10510;47.942;9.442;2023-03-14T05:36:34;92908.19;;;5.53;100.00
11487;BME280;10510;47.942;9.442;2023-03-14T05:38:34;92909.97;;;5.53;100.00
11487;BME280;10510;47.942;9.442;2023-03-14T05:40:35;92902.19;;;5.53;100.00
11487;BME280;10510;47.942;9.442;2023-03-14T05:42:35;92901.38;;;5.52;100.00
11487;BME280;10510;47.942;9.442;2023-03-14T05:44:35;92896.22;;;5.52;100.00
11487;BME280;10510;47.942;9.442;2023-03-14T05:46:35;92897.81;;;5.53;100.00
11487;BME280;10510;47.942;9.442;2023-03-14T05:48:36;92900.41;;;5.53;100.00
11487;BME280;10510;47.942;9.442;2023-03-14T05:50:36;92902.78;;;5.55;100.00
11487;BME280;10510;47.942;9.442;2023-03-14T05:52:37;92895.81;;;5.55;100.00
11487;BME280;10510;47.942;9.442;2023-03-14T05:54:37;92895.81;;;5.55;100.00
11487;BME280;10510;47.942;9.442;2023-03-14T05:56:37;92883.88;;;5.54;100.00
11487;BME280;10510;47.942;9.442;2023-03-14T05:58:37;92884.25;;;5.58;100.00
11487;BME280;10510;47.942;9.442;2023-03-14T06:00:38;92879.09;;;5.58;100.00
11487;BME280;10510;47.942;9.442;2023-03-14T06:02:38;92882.28;;;5.60;100.00
11487;BME280;10510;47.942;9.442;2023-03-14T06:04:39;92873.50;;;5.61;100.00
11487;BME280;10510;47.942;9.442;2023-03-14T06:06:39;92870.53;;;5.64;100.00
11487;BME280;10510;47.942;9.442;2023-03-14T06:08:39;92865.16;;;5.65;100.00
11487;BME280;10510;47.942;9.442;2023-03-14T06:10:39;92864.38;;;5.65;100.00
11487;BME280;10510;47.942;9.442;2023-03-14T06:12:40;92853.00;;;5.66;100.00
11487;BME280;10510;47.942;9.442;2023-03-14T06:14:40;92858.19;;;5.66;100.00
11487;BME280;10510;47.942;9.442;2023-03-14T06:16:40;92854.56;;;5.67;100.00
11487;BME280;10510;47.942;9.442;2023-03-14T06:18:41;92855.19;;;5.69;100.00
11487;BME280;10510;47.942;9.442;2023-03-14T06:20:41;92848.03;;;5.71;100.00
11487;BME280;10510;47.942;9.442;2023-03-14T06:22:41;92855.00;;;5.77;100.00
11487;BME280;10510;47.942;9.442;2023-03-14T06:24:42;92852.03;;;5.80;100.00
11487;BME280;10510;47.942;9.442;2023-03-14T06:26:42;92843.25;;;5.81;100.00
11487;BME280;10510;47.942;9.442;2023-03-14T06:28:42;92843.84;;;5.83;100.00
11487;BME280;10510;47.942;9.442;2023-03-14T06:30:42;92854.84;;;5.85;100.00
11487;BME280;10510;47.942;9.442;2023-03-14T06:32:43;92858.00;;;5.87;100.00
11487;BME280;10510;47.942;9.442;2023-03-14T06:34:43;92857.59;;;5.90;100.00
11487;BME280;10510;47.942;9.442;2023-03-14T06:36:44;92860.03;;;5.92;100.00
11487;BME280;10510;47.942;9.442;2023-03-14T06:38:44;92860.03;;;5.92;100.00
11487;BME280;10510;47.942;9.442;2023-03-14T06:40:44;92847.28;;;5.97;100.00
11487;BME280;10510;47.942;9.442;2023-03-14T06:42:45;92848.88;;;5.98;100.00
11487;BME280;10510;47.942;9.442;2023-03-14T06:44:45;92852.09;;;6.00;100.00
11487;BME280;10510;47.942;9.442;2023-03-14T06:46:45;92857.84;;;6.02;100.00
11487;BME280;10510;47.942;9.442;2023-03-14T06:48:46;92857.06;;;6.02;100.00
11487;BME280;10510;47.942;9.442;2023-03-14T06:50:48;92863.84;;;6.03;100.00
11487;BME280;10510;47.942;9.442;2023-03-14T06:52:48;92866.25;;;6.04;100.00
11487;BME280;10510;47.942;9.442;2023-03-14T06:54:49;92857.28;;;6.07;100.00
11487;BME280;10510;47.942;9.442;2023-03-14T06:56:49;92856.88;;;6.10;100.00
11487;BME280;10510;47.942;9.442;2023-03-14T06:58:49;92861.66;;;6.13;100.00
11487;BME280;10510;47.942;9.442;2023-03-14T07:00:49;92860.25;;;6.17;100.00
11487;BME280;10510;47.942;9.442;2023-03-14T07:02:50;92854.66;;;6.20;100.00
11487;BME280;10510;47.942;9.442;2023-03-14T07:04:50;92859.44;;;6.23;100.00
11487;BME280;10510;47.942;9.442;2023-03-14T07:06:50;92852.88;;;6.27;100.00
11487;BME280;10510;47.942;9.442;2023-03-14T07:08:51;92857.69;;;6.30;100.00
11487;BME280;10510;47.942;9.442;2023-03-14T07:10:51;92847.69;;;6.34;100.00
11487;BME280;10510;47.942;9.442;2023-03-14T07:12:51;92850.50;;;6.39;100.00
11487;BME280;10510;47.942;9.442;2023-03-14T07:14:52;92853.28;;;6.44;100.00
11487;BME280;10510;47.942;9.442;2023-03-14T07:16:53;92854.47;;;6.48;100.00
11487;BME280;10510;47.942;9.442;2023-03-14T07:18:53;92840.28;;;6.51;100.00
11487;BME280;10510;47.942;9.442;2023-03-14T07:20:53;92839.88;;;6.54;100.00
11487;BME280;10510;47.942;9.442;2023-03-14T07:22:53;92848.66;;;6.53;100.00
11487;BME280;10510;47.942;9.442;2023-03-14T07:24:54;92846.06;;;6.53;100.00
11487;BME280;10510;47.942;9.442;2023-03-14T07:26:54;92853.47;;;6.56;100.00
11487;BME280;10510;47.942;9.442;2023-03-14T07:28:55;92856.66;;;6.58;100.00
11487;BME280;10510;47.942;9.442;2023-03-14T07:30:55;92857.03;;;6.62;100.00
11487;BME280;10510;47.942;9.442;2023-03-14T07:32:55;92856.63;;;6.65;100.00
11487;BME280;10510;47.942;9.442;2023-03-14T07:34:55;92856.03;;;6.69;100.00
11487;BME280;10510;47.942;9.442;2023-03-14T07:36:56;92856.22;;;6.74;100.00
11487;BME280;10510;47.942;9.442;2023-03-14T07:38:56;92852.81;;;6.80;100.00
11487;BME280;10510;47.942;9.442;2023-03-14T07:41:05;92856.41;;;6.86;100.00
11487;BME280;10510;47.942;9.442;2023-03-14T07:43:06;92852.19;;;6.92;100.00
11487;BME280;10510;47.942;9.442;2023-03-14T07:45:08;92858.34;;;7.04;100.00
11487;BME280;10510;47.942;9.442;2023-03-14T07:47:08;92865.69;;;7.20;100.00
11487;BME280;10510;47.942;9.442;2023-03-14T07:49:08;92867.81;;;7.43;100.00
11487;BME280;10510;47.942;9.442;2023-03-14T07:51:09;92871.53;;;7.61;100.00
11487;BME280;10510;47.942;9.442;2023-03-14T07:53:09;92849.22;;;7.78;100.00
11487;BME280;10510;47.942;9.442;2023-03-14T07:55:09;92878.72;;;7.97;100.00
11487;BME280;10510;47.942;9.442;2023-03-14T07:57:10;92870.25;;;8.08;100.00
11487;BME280;10510;47.942;9.442;2023-03-14T07:59:10;92860.19;;;8.18;100.00
11487;BME280;10510;47.942;9.442;2023-03-14T08:01:12;92855.09;;;8.30;100.00
11487;BME280;10510;47.942;9.442;2023-03-14T08:03:12;92857.03;;;8.35;100.00
11487;BME280;10510;47.942;9.442;2023-03-14T08:05:12;92850.44;;;8.39;100.00
11487;BME280;10510;47.942;9.442;2023-03-14T08:07:12;92848.38;;;8.48;100.00
11487;BME280;10510;47.942;9.442;2023-03-14T08:09:13;92859.75;;;8.53;100.00
11487;BME280;10510;47.942;9.442;2023-03-14T08:11:13;92857.00;;;8.67;100.00
11487;BME280;10510;47.942;9.442;2023-03-14T08:13:14;92858.56;;;8.74;100.00
11487;BME280;10510;47.942;9.442;2023-03-14T08:15:14;92853.88;;;8.83;100.00
11487;BME280;10510;47.942;9.442;2023-03-14T08:17:14;92860.53;;;8.97;100.00
11487;BME280;10510;47.942;9.442;2023-03-14T08:19:14;92866.41;;;9.11;100.00
11487;BME280;10510;47.942;9.442;2023-03-14T08:21:15;92863.88;;;9.23;100.00
11487;BME280;10510;47.942;9.442;2023-03-14T08:23:15;92875.97;;;9.36;100.00
11487;BME280;10510;47.942;9.442;2023-03-14T08:25:16;92875.00;;;9.48;100.00
11487;BME280;10510;47.942;9.442;2023-03-14T08:27:16;92885.28;;;9.62;100.00
11487;BME280;10510;47.942;9.442;2023-03-14T08:29:16;92887.03;;;9.49;100.00
11487;BME280;10510;47.942;9.442;2023-03-14T08:31:17;92881.47;;;9.46;100.00
11487;BME280;10510;47.942;9.442;2023-03-14T08:33:17;92876.47;;;9.44;100.00
11487;BME280;10510;47.942;9.442;2023-03-14T08:35:18;92893.69;;;9.45;100.00
11487;BME280;10510;47.942;9.442;2023-03-14T08:37:18;92898.84;;;9.33;100.00
11487;BME280;10510;47.942;9.442;2023-03-14T08:39:19;92900.59;;;9.21;100.00
11487;BME280;10510;47.942;9.442;2023-03-14T08:41:20;92900.06;;;9.13;100.00
11487;BME280;10510;47.942;9.442;2023-03-14T08:43:20;92899.72;;;9.09;100.00
11487;BME280;10510;47.942;9.442;2023-03-14T08:45:20;92893.31;;;9.05;100.00
11487;BME280;10510;47.942;9.442;2023-03-14T08:47:21;92890.78;;;8.98;100.00
11487;BME280;10510;47.942;9.442;2023-03-14T08:49:21;92897.66;;;8.93;100.00
11487;BME280;10510;47.942;9.442;2023-03-14T08:51:22;92897.91;;;8.84;100.00
11487;BME280;10510;47.942;9.442;2023-03-14T08:53:22;92898.59;;;8.80;100.00
11487;BME280;10510;47.942;9.442;2023-03-14T08:55:22;92895.59;;;8.76;100.00
11487;BME280;10510;47.942;9.442;2023-03-14T08:57:23;92897.41;;;8.76;100.00
11487;BME280;10510;47.942;9.442;2023-03-14T08:59:27;92893.38;;;8.80;100.00
11487;BME280;10510;47.942;9.442;2023-03-14T09:01:27;92898.50;;;8.86;100.00
11487;BME280;10510;47.942;9.442;2023-03-14T09:03:27;92906.25;;;8.93;100.00
11487;BME280;10510;47.942;9.442;2023-03-14T09:05:28;92895.22;;;8.98;100.00
11487;BME280;10510;47.942;9.442;2023-03-14T09:07:29;92903.97;;;9.03;100.00
11487;BME280;10510;47.942;9.442;2023-03-14T09:09:29;92926.03;;;9.01;100.00
11487;BME280;10510;47.942;9.442;2023-03-14T09:11:30;92917.19;;;9.02;100.00
11487;BME280;10510;47.942;9.442;2023-03-14T09:13:31;92916.41;;;9.01;100.00
11487;BME280;10510;47.942;9.442;2023-03-14T09:15:31;92908.38;;;9.03;100.00
11487;BME280;10510;47.942;9.442;2023-03-14T09:17:32;92907.13;;;9.05;100.00
11487;BME280;10510;47.942;9.442;2023-03-14T09:19:32;92934.94;;;9.12;100.00
11487;BME280;10510;47.942;9.442;2023-03-14T09:21:32;92916.28;;;9.15;100.00
11487;BME280;10510;47.942;9.442;2023-03-14T09:23:33;92918.84;;;9.21;100.00
11487;BME280;10510;47.942;9.442;2023-03-14T09:25:33;92903.91;;;9.28;100.00
11487;BME280;10510;47.942;9.442;2023-03-14T09:27:33;92917.72;;;9.29;100.00
11487;BME280;10510;47.942;9.442;2023-03-14T09:29:34;92926.00;;;9.26;100.00
11487;BME280;10510;47.942;9.442;2023-03-14T09:31:34;92908.13;;;9.29;100.00
11487;BME280;10510;47.942;9.442;2023-03-14T09:33:36;92904.22;;;9.39;100.00
11487;BME280;10510;47.942;9.442;2023-03-14T09:35:36;92906.66;;;9.52;100.00
11487;BME280;10510;47.942;9.442;2023-03-14T09:37:37;92902.44;;;9.69;100.00
11487;BME280;10510;47.942;9.442;2023-03-14T09:39:37;92917.75;;;9.66;100.00
11487;BME280;10510;47.942;9.442;2023-03-14T09:41:43;92936.44;;;9.63;100.00
11487;BME280;10510;47.942;9.442;2023-03-14T09:43:45;92915.41;;;9.58;100.00
11487;BME280;10510;47.942;9.442;2023-03-14T09:45:48;92915.06;;;9.54;100.00
11487;BME280;10510;47.942;9.442;2023-03-14T09:47:48;92923.09;;;9.52;100.00
11487;BME280;10510;47.942;9.442;2023-03-14T09:49:49;92916.22;;;9.58;100.00
11487;BME280;10510;47.942;9.442;2023-03-14T09:51:52;92920.56;;;9.64;100.00
11487;BME280;10510;47.942;9.442;2023-03-14T09:53:53;92915.94;;;9.66;100.00
11487;BME280;10510;47.942;9.442;2023-03-14T09:55:54;92923.75;;;9.66;100.00
11487;BME280;10510;47.942;9.442;2023-03-14T09:57:58;92913.56;;;9.65;100.00
11487;BME280;10510;47.942;9.442;2023-03-14T10:00:10;92932.66;;;9.59;100.00
11487;BME280;10510;47.942;9.442;2023-03-14T10:02:22;92928.09;;;9.54;100.00
11487;BME280;10510;47.942;9.442;2023-03-14T10:04:22;92931.34;;;9.49;100.00
11487;BME280;10510;47.942;9.442;2023-03-14T10:06:28;92937.38;;;9.50;100.00
11487;BME280;10510;47.942;9.442;2023-03-14T10:08:29;92944.19;;;9.51;100.00
11487;BME280;10510;47.942;9.442;2023-03-14T10:10:29;92933.97;;;9.49;100.00
11487;BME280;10510;47.942;9.442;2023-03-14T10:12:35;92936.00;;;9.47;100.00
11487;BME280;10510;47.942;9.442;2023-03-14T10:14:44;92943.25;;;9.45;100.00
11487;BME280;10510;47.942;9.442;2023-03-14T10:16:46;92950.28;;;9.45;100.00
11487;BME280;10510;47.942;9.442;2023-03-14T10:18:46;92943.44;;;9.44;100.00
11487;BME280;10510;47.942;9.442;2023-03-14T10:20:48;92940.03;;;9.43;100.00
11487;BME280;10510;47.942;9.442;2023-03-14T10:22:50;92934.31;;;9.35;100.00
11487;BME280;10510;47.942;9.442;2023-03-14T10:24:56;92944.03;;;9.27;100.00
11487;BME280;10510;47.942;9.442;2023-03-14T10:27:02;92953.06;;;9.25;100.00
11487;BME280;10510;47.942;9.442;2023-03-14T10:29:11;92953.66;;;9.27;100.00
11487;BME280;10510;47.942;9.442;2023-03-14T10:31:12;92959.00;;;9.32;100.00
11487;BME280;10510;47.942;9.442;2023-03-14T10:33:23;92967.00;;;9.37;100.00
11487;BME280;10510;47.942;9.442;2023-03-14T10:35:23;92962.81;;;9.36;100.00
11487;BME280;10510;47.942;9.442;2023-03-14T10:37:26;92964.66;;;9.29;100.00
11487;BME280;10510;47.942;9.442;2023-03-14T10:39:31;92957.50;;;9.24;100.00
11487;BME280;10510;47.942;9.442;2023-03-14T10:41:37;92954.13;;;9.17;100.00
11487;BME280;10510;47.942;9.442;2023-03-14T10:43:37;92969.22;;;9.15;100.00